sensor_id;sensor_type;location;lat;lon;timestamp;pressure;altitude;pressure_sealevel;temperature;humidity
44131;BME280;29792;48.726;9.248;2022-09-21T00:01:56;97687.03;;;8.76;91.06
44131;BME280;29792;48.726;9.248;2022-09-21T00:04:24;97683.88;;;8.73;91.46
44131;BME280;29792;48.726;9.248;2022-09-21T00:06:50;97684.88;;;8.70;91.52
44131;BME280;29792;48.726;9.248;2022-09-21T00:09:15;97679.16;;;8.67;91.19
44131;BME280;29792;48.726;9.248;2022-09-21T00:11:40;97684.44;;;8.64;91.39
44131;BME280;29792;48.726;9.248;2022-09-21T00:14:11;97689.09;;;8.57;91.05
44131;BME280;29792;48.726;9.248;2022-09-21T00:16:41;97687.03;;;8.50;91.42
44131;BME280;29792;48.726;9.248;2022-09-21T00:19:07;97688.84;;;8.48;91.95
44131;BME280;29792;48.726;9.248;2022-09-21T00:21:33;97689.66;;;8.48;92.09
44131;BME280;29792;48.726;9.248;2022-09-21T00:23:58;97688.94;;;8.46;91.79
44131;BME280;29792;48.726;9.248;2022-09-21T00:26:25;97683.09;;;8.44;91.95
44131;BME280;29792;48.726;9.248;2022-09-21T00:28:53;97688.19;;;8.44;92.34
44131;BME280;29792;48.726;9.248;2022-09-21T00:31:19;97682.91;;;8.47;92.58
44131;BME280;29792;48.726;9.248;2022-09-21T00:33:44;97682.91;;;8.47;92.46
44131;BME280;29792;48.726;9.248;2022-09-21T00:36:14;97695.38;;;8.52;92.70
44131;BME280;29792;48.726;9.248;2022-09-21T00:38:41;97686.94;;;8.51;92.65
44131;BME280;29792;48.726;9.248;2022-09-21T00:41:08;97675.78;;;8.52;92.76
44131;BME280;29792;48.726;9.248;2022-09-21T00:43:41;97685.19;;;8.52;92.63
44131;BME280;29792;48.726;9.248;2022-09-21T00:46:28;97681.09;;;8.49;92.56
44131;BME280;29792;48.726;9.248;2022-09-21T00:48:54;97681.91;;;8.50;92.59
44131;BME280;29792;48.726;9.248;2022-09-21T00:51:19;97683.75;;;8.48;92.42
44131;BME280;29792;48.726;9.248;2022-09-21T00:53:46;97683.00;;;8.46;92.51
44131;BME280;29792;48.726;9.248;2022-09-21T00:56:14;97682.25;;;8.43;92.43
44131;BME280;29792;48.726;9.248;2022-09-21T00:58:44;97681.66;;;8.40;92.78
44131;BME280;29792;48.726;9.248;2022-09-21T01:01:11;97684.28;;;8.38;92.80
44131;BME280;29792;48.726;9.248;2022-09-21T01:03:40;97680.19;;;8.36;93.04
44131;BME280;29792;48.726;9.248;2022-09-21T01:06:10;97679.34;;;8.35;93.01
44131;BME280;29792;48.726;9.248;2022-09-21T01:08:35;97686.22;;;8.35;93.22
44131;BME280;29792;48.726;9.248;2022-09-21T01:16:41;97678.78;;;8.30;93.48
44131;BME280;29792;48.726;9.248;2022-09-21T01:19:32;97677.91;;;8.31;93.49
44131;BME280;29792;48.726;9.248;2022-09-21T01:25:13;97679.56;;;8.32;93.79
44131;BME280;29792;48.726;9.248;2022-09-21T01:30:38;97675.16;;;8.20;92.99
44131;BME280;29792;48.726;9.248;2022-09-21T01:33:12;97676.34;;;8.15;92.81
44131;BME280;29792;48.726;9.248;2022-09-21T01:35:45;97682.44;;;8.12;93.51
44131;BME280;29792;48.726;9.248;2022-09-21T01:38:14;97685.09;;;8.11;93.64
44131;BME280;29792;48.726;9.248;2022-09-21T01:40:49;97681.16;;;8.05;93.37
44131;BME280;29792;48.726;9.248;2022-09-21T01:43:25;97680.44;;;8.03;93.92
44131;BME280;29792;48.726;9.248;2022-09-21T01:45:53;97687.28;;;8.02;94.84
44131;BME280;29792;48.726;9.248;2022-09-21T01:48:21;97682.97;;;8.03;94.28
44131;BME280;29792;48.726;9.248;2022-09-21T01:50:51;97684.81;;;8.01;94.39
44131;BME280;29792;48.726;9.248;2022-09-21T01:53:26;97685.81;;;7.98;94.45
44131;BME280;29792;48.726;9.248;2022-09-21T01:55:58;97682.53;;;7.96;94.26
44131;BME280;29792;48.726;9.248;2022-09-21T02:01:23;97685.53;;;7.89;93.75
44131;BME280;29792;48.726;9.248;2022-09-21T02:03:54;97685.00;;;7.84;94.05
44131;BME280;29792;48.726;9.248;2022-09-21T02:06:24;97685.81;;;7.84;94.87
44131;BME280;29792;48.726;9.248;2022-09-21T02:08:51;97687.63;;;7.82;94.09
44131;BME280;29792;48.726;9.248;2022-09-21T02:11:16;97681.06;;;7.78;93.83
44131;BME280;29792;48.726;9.248;2022-09-21T02:13:44;97681.25;;;7.75;94.46
44131;BME280;29792;48.726;9.248;2022-09-21T02:16:38;97690.78;;;7.72;94.38
44131;BME280;29792;48.726;9.248;2022-09-21T02:19:17;97686.69;;;7.69;93.94
44131;BME280;29792;48.726;9.248;2022-09-21T02:22:00;97685.97;;;7.67;94.12
44131;BME280;29792;48.726;9.248;2022-09-21T02:24:34;97683.41;;;7.67;94.48
44131;BME280;29792;48.726;9.248;2022-09-21T02:27:13;97676.75;;;7.64;94.34
44131;BME280;29792;48.726;9.248;2022-09-21T02:29:51;97677.94;;;7.59;94.02
44131;BME280;29792;48.726;9.248;2022-09-21T02:38:48;97681.34;;;7.44;93.99
44131;BME280;29792;48.726;9.248;2022-09-21T02:41:03;97684.72;;;7.44;94.35
44131;BME280;29792;48.726;9.248;2022-09-21T02:43:35;97676.19;;;7.45;94.50
44131;BME280;29792;48.726;9.248;2022-09-21T02:46:12;97680.44;;;7.45;94.94
44131;BME280;29792;48.726;9.248;2022-09-21T02:48:46;97681.44;;;7.42;94.26
44131;BME280;29792;48.726;9.248;2022-09-21T02:51:18;97689.00;;;7.44;94.86
44131;BME280;29792;48.726;9.248;2022-09-21T02:53:45;97685.44;;;7.46;95.53
44131;BME280;29792;48.726;9.248;2022-09-21T02:56:12;97693.00;;;7.48;94.90
44131;BME280;29792;48.726;9.248;2022-09-21T02:58:42;97690.38;;;7.49;95.46
44131;BME280;29792;48.726;9.248;2022-09-21T03:01:11;97681.00;;;7.50;95.42
44131;BME280;29792;48.726;9.248;2022-09-21T03:03:37;97682.66;;;7.51;95.65
44131;BME280;29792;48.726;9.248;2022-09-21T03:06:02;97684.38;;;7.50;95.44
44131;BME280;29792;48.726;9.248;2022-09-21T03:08:28;97682.66;;;7.51;95.45
44131;BME280;29792;48.726;9.248;2022-09-21T03:10:54;97684.38;;;7.50;95.84
44131;BME280;29792;48.726;9.248;2022-09-21T03:13:20;97680.19;;;7.49;95.55
44131;BME280;29792;48.726;9.248;2022-09-21T03:15:45;97680.25;;;7.48;95.90
44131;BME280;29792;48.726;9.248;2022-09-21T03:18:12;97683.09;;;7.43;95.65
44131;BME280;29792;48.726;9.248;2022-09-21T03:20:39;97674.69;;;7.41;94.95
44131;BME280;29792;48.726;9.248;2022-09-21T03:23:04;97674.84;;;7.38;95.47
44131;BME280;29792;48.726;9.248;2022-09-21T03:25:30;97681.78;;;7.36;95.21
44131;BME280;29792;48.726;9.248;2022-09-21T03:27:56;97686.16;;;7.34;95.49
44131;BME280;29792;48.726;9.248;2022-09-21T03:30:23;97681.13;;;7.33;95.77
44131;BME280;29792;48.726;9.248;2022-09-21T03:32:49;97692.22;;;7.32;95.76
44131;BME280;29792;48.726;9.248;2022-09-21T03:35:16;97693.94;;;7.31;95.66
44131;BME280;29792;48.726;9.248;2022-09-21T03:37:41;97688.22;;;7.27;95.27
44131;BME280;29792;48.726;9.248;2022-09-21T03:40:07;97693.56;;;7.23;94.97
44131;BME280;29792;48.726;9.248;2022-09-21T03:42:33;97691.13;;;7.21;95.27
44131;BME280;29792;48.726;9.248;2022-09-21T03:44:58;97689.63;;;7.17;95.18
44131;BME280;29792;48.726;9.248;2022-09-21T03:47:23;97689.72;;;7.16;95.61
44131;BME280;29792;48.726;9.248;2022-09-21T03:49:49;97687.25;;;7.14;95.48
44131;BME280;29792;48.726;9.248;2022-09-21T03:52:14;97683.09;;;7.13;95.79
44131;BME280;29792;48.726;9.248;2022-09-21T03:54:39;97686.59;;;7.11;95.74
44131;BME280;29792;48.726;9.248;2022-09-21T03:57:04;97684.13;;;7.09;95.48
44131;BME280;29792;48.726;9.248;2022-09-21T03:59:30;97684.97;;;7.10;96.00
44131;BME280;29792;48.726;9.248;2022-09-21T04:01:55;97688.41;;;7.09;95.46
44131;BME280;29792;48.726;9.248;2022-09-21T04:04:20;97684.41;;;7.05;95.96
44131;BME280;29792;48.726;9.248;2022-09-21T04:06:46;97693.03;;;7.02;95.80
44131;BME280;29792;48.726;9.248;2022-09-21T04:09:11;97695.56;;;7.02;96.12
44131;BME280;29792;48.726;9.248;2022-09-21T04:11:36;97699.03;;;7.01;96.08
44131;BME280;29792;48.726;9.248;2022-09-21T04:14:03;97695.66;;;7.01;96.24
44131;BME280;29792;48.726;9.248;2022-09-21T04:16:29;97694.00;;;7.00;96.58
44131;BME280;29792;48.726;9.248;2022-09-21T04:18:55;97689.00;;;6.98;96.04
44131;BME280;29792;48.726;9.248;2022-09-21T04:21:20;97692.47;;;6.97;96.39
44131;BME280;29792;48.726;9.248;2022-09-21T04:23:46;97691.66;;;6.97;96.72
44131;BME280;29792;48.726;9.248;2022-09-21T04:26:20;97700.91;;;6.98;97.11
44131;BME280;29792;48.726;9.248;2022-09-21T04:28:47;97698.28;;;6.99;96.92
44131;BME280;29792;48.726;9.248;2022-09-21T04:31:12;97699.28;;;6.97;96.84
44131;BME280;29792;48.726;9.248;2022-09-21T04:33:37;97708.72;;;6.95;96.82
44131;BME280;29792;48.726;9.248;2022-09-21T04:36:02;97706.19;;;6.95;96.87
44131;BME280;29792;48.726;9.248;2022-09-21T04:38:30;97706.25;;;6.93;96.44
44131;BME280;29792;48.726;9.248;2022-09-21T04:40:56;97709.72;;;6.92;96.83
44131;BME280;29792;48.726;9.248;2022-09-21T04:43:22;97711.44;;;6.92;97.21
44131;BME280;29792;48.726;9.248;2022-09-21T04:45:47;97717.53;;;6.89;96.54
44131;BME280;29792;48.726;9.248;2022-09-21T04:48:12;97716.78;;;6.87;96.31
44131;BME280;29792;48.726;9.248;2022-09-21T04:50:38;97718.50;;;6.86;96.44
44131;BME280;29792;48.726;9.248;2022-09-21T04:53:03;97720.31;;;6.84;96.67
44131;BME280;29792;48.726;9.248;2022-09-21T04:55:29;97714.47;;;6.82;96.61
44131;BME280;29792;48.726;9.248;2022-09-21T04:57:55;97717.84;;;6.83;96.45
44131;BME280;29792;48.726;9.248;2022-09-21T05:00:20;97719.50;;;6.84;96.76
44131;BME280;29792;48.726;9.248;2022-09-21T05:02:45;97728.84;;;6.83;96.78
44131;BME280;29792;48.726;9.248;2022-09-21T05:05:10;97722.09;;;6.82;96.56
44131;BME280;29792;48.726;9.248;2022-09-21T05:07:35;97726.47;;;6.80;96.14
44131;BME280;29792;48.726;9.248;2022-09-21T05:10:01;97729.19;;;6.77;96.21
44131;BME280;29792;48.726;9.248;2022-09-21T05:12:30;97723.41;;;6.74;96.40
44131;BME280;29792;48.726;9.248;2022-09-21T05:14:56;97733.59;;;6.74;96.40
44131;BME280;29792;48.726;9.248;2022-09-21T05:17:21;97732.78;;;6.73;96.75
44131;BME280;29792;48.726;9.248;2022-09-21T05:19:48;97730.16;;;6.75;97.50
44131;BME280;29792;48.726;9.248;2022-09-21T05:22:13;97731.81;;;6.76;96.68
44131;BME280;29792;48.726;9.248;2022-09-21T05:24:38;97730.97;;;6.75;96.88
44131;BME280;29792;48.726;9.248;2022-09-21T05:27:04;97736.91;;;6.76;96.80
44131;BME280;29792;48.726;9.248;2022-09-21T05:29:29;97727.53;;;6.76;97.08
44131;BME280;29792;48.726;9.248;2022-09-21T05:32:02;97730.97;;;6.75;96.71
44131;BME280;29792;48.726;9.248;2022-09-21T05:40:09;97734.28;;;6.77;97.06
44131;BME280;29792;48.726;9.248;2022-09-21T05:42:35;97731.81;;;6.76;97.25
44131;BME280;29792;48.726;9.248;2022-09-21T05:45:00;97731.72;;;6.77;97.51
44131;BME280;29792;48.726;9.248;2022-09-21T05:47:45;97736.00;;;6.77;98.10
44131;BME280;29792;48.726;9.248;2022-09-21T05:50:29;97741.00;;;6.78;97.62
44131;BME280;29792;48.726;9.248;2022-09-21T05:53:23;97739.28;;;6.79;97.80
44131;BME280;29792;48.726;9.248;2022-09-21T05:55:55;97742.66;;;6.79;97.92
44131;BME280;29792;48.726;9.248;2022-09-21T05:58:50;97749.47;;;6.79;98.22
44131;BME280;29792;48.726;9.248;2022-09-21T06:03:55;97745.34;;;6.76;98.06
44131;BME280;29792;48.726;9.248;2022-09-21T06:06:20;97748.16;;;6.72;97.84
44131;BME280;29792;48.726;9.248;2022-09-21T06:08:46;97749.88;;;6.71;98.21
44131;BME280;29792;48.726;9.248;2022-09-21T06:11:12;97749.13;;;6.69;97.99
44131;BME280;29792;48.726;9.248;2022-09-21T06:13:37;97756.03;;;6.67;98.53
44131;BME280;29792;48.726;9.248;2022-09-21T06:16:05;97750.19;;;6.65;98.29
44131;BME280;29792;48.726;9.248;2022-09-21T06:18:30;97751.09;;;6.64;98.63
44131;BME280;29792;48.726;9.248;2022-09-21T06:20:56;97758.56;;;6.67;99.38
44131;BME280;29792;48.726;9.248;2022-09-21T06:23:21;97751.69;;;6.69;98.98
44131;BME280;29792;48.726;9.248;2022-09-21T06:25:53;97763.31;;;6.73;99.78
44131;BME280;29792;48.726;9.248;2022-09-21T06:28:18;97758.97;;;6.75;99.71
44131;BME280;29792;48.726;9.248;2022-09-21T06:30:49;97764.75;;;6.79;99.64
44131;BME280;29792;48.726;9.248;2022-09-21T06:33:15;97762.13;;;6.80;100.00
44131;BME280;29792;48.726;9.248;2022-09-21T06:35:53;97767.88;;;6.84;100.00
44131;BME280;29792;48.726;9.248;2022-09-21T06:38:19;97768.53;;;6.87;100.00
44131;BME280;29792;48.726;9.248;2022-09-21T06:40:44;97765.09;;;6.88;100.00
44131;BME280;29792;48.726;9.248;2022-09-21T06:43:10;97766.56;;;6.93;100.00
44131;BME280;29792;48.726;9.248;2022-09-21T06:45:35;97766.41;;;6.96;100.00
44131;BME280;29792;48.726;9.248;2022-09-21T06:48:00;97765.31;;;7.00;100.00
44131;BME280;29792;48.726;9.248;2022-09-21T06:50:26;97768.63;;;7.02;100.00
44131;BME280;29792;48.726;9.248;2022-09-21T06:52:51;97778.81;;;7.02;100.00
44131;BME280;29792;48.726;9.248;2022-09-21T06:55:16;97767.63;;;7.04;100.00
44131;BME280;29792;48.726;9.248;2022-09-21T06:57:42;97766.63;;;7.07;100.00
44131;BME280;29792;48.726;9.248;2022-09-21T07:00:09;97765.50;;;7.12;100.00
44131;BME280;29792;48.726;9.248;2022-09-21T07:02:35;97766.81;;;7.19;100.00
44131;BME280;29792;48.726;9.248;2022-09-21T07:05:00;97768.94;;;7.27;100.00
44131;BME280;29792;48.726;9.248;2022-09-21T07:07:27;97762.53;;;7.36;100.00
44131;BME280;29792;48.726;9.248;2022-09-21T07:09:54;97756.00;;;7.46;100.00
44131;BME280;29792;48.726;9.248;2022-09-21T07:12:20;97767.25;;;7.57;100.00
44131;BME280;29792;48.726;9.248;2022-09-21T07:14:46;97760.66;;;7.69;100.00
44131;BME280;29792;48.726;9.248;2022-09-21T07:17:12;97759.94;;;7.81;100.00
44131;BME280;29792;48.726;9.248;2022-09-21T07:19:39;97761.81;;;7.93;100.00
44131;BME280;29792;48.726;9.248;2022-09-21T07:22:04;97761.16;;;8.04;100.00
44131;BME280;29792;48.726;9.248;2022-09-21T07:24:29;97758.81;;;8.15;100.00
44131;BME280;29792;48.726;9.248;2022-09-21T07:26:54;97772.59;;;8.27;100.00
44131;BME280;29792;48.726;9.248;2022-09-21T07:29:20;97764.41;;;8.36;100.00
44131;BME280;29792;48.726;9.248;2022-09-21T07:31:45;97768.97;;;8.45;100.00
44131;BME280;29792;48.726;9.248;2022-09-21T07:34:12;97771.56;;;8.59;100.00
44131;BME280;29792;48.726;9.248;2022-09-21T07:36:37;97775.09;;;8.71;100.00
44131;BME280;29792;48.726;9.248;2022-09-21T07:39:02;97776.91;;;8.83;100.00
44131;BME280;29792;48.726;9.248;2022-09-21T07:41:28;97779.44;;;8.97;100.00
44131;BME280;29792;48.726;9.248;2022-09-21T07:43:53;97777.03;;;9.08;100.00
44131;BME280;29792;48.726;9.248;2022-09-21T07:46:18;97775.38;;;9.22;100.00
44131;BME280;29792;48.726;9.248;2022-09-21T07:48:44;97771.34;;;9.32;100.00
44131;BME280;29792;48.726;9.248;2022-09-21T07:51:11;97778.03;;;9.47;100.00
44131;BME280;29792;48.726;9.248;2022-09-21T07:53:39;97768.56;;;9.62;100.00
44131;BME280;29792;48.726;9.248;2022-09-21T07:56:09;97766.16;;;9.73;100.00
44131;BME280;29792;48.726;9.248;2022-09-21T07:58:36;97778.78;;;9.88;99.85
44131;BME280;29792;48.726;9.248;2022-09-21T08:01:21;97774.28;;;10.05;99.66
44131;BME280;29792;48.726;9.248;2022-09-21T08:03:50;97767.97;;;10.23;99.84
44131;BME280;29792;48.726;9.248;2022-09-21T08:06:16;97776.78;;;10.44;99.73
44131;BME280;29792;48.726;9.248;2022-09-21T08:08:42;97769.19;;;10.68;99.51
44131;BME280;29792;48.726;9.248;2022-09-21T08:11:07;97771.81;;;10.92;98.69
44131;BME280;29792;48.726;9.248;2022-09-21T08:13:33;97769.50;;;11.13;97.78
44131;BME280;29792;48.726;9.248;2022-09-21T08:16:02;97767.75;;;11.37;96.88
44131;BME280;29792;48.726;9.248;2022-09-21T08:18:28;97766.09;;;11.60;96.42
44131;BME280;29792;48.726;9.248;2022-09-21T08:20:57;97769.50;;;11.84;94.76
44131;BME280;29792;48.726;9.248;2022-09-21T08:23:23;97776.78;;;12.01;93.47
44131;BME280;29792;48.726;9.248;2022-09-21T08:25:50;97774.41;;;12.22;92.58
44131;BME280;29792;48.726;9.248;2022-09-21T08:28:15;97775.47;;;12.42;92.09
44131;BME280;29792;48.726;9.248;2022-09-21T08:30:40;97776.88;;;12.68;91.92
44131;BME280;29792;48.726;9.248;2022-09-21T08:33:06;97771.72;;;12.90;90.55
44131;BME280;29792;48.726;9.248;2022-09-21T08:35:32;97777.56;;;13.15;89.69
44131;BME280;29792;48.726;9.248;2022-09-21T08:37:57;97770.88;;;13.34;87.32
44131;BME280;29792;48.726;9.248;2022-09-21T08:40:23;97777.00;;;13.54;85.77
44131;BME280;29792;48.726;9.248;2022-09-21T08:42:53;97770.50;;;13.71;84.22
44131;BME280;29792;48.726;9.248;2022-09-21T08:45:24;97774.88;;;13.91;83.31
44131;BME280;29792;48.726;9.248;2022-09-21T08:47:56;97774.03;;;14.11;82.86
44131;BME280;29792;48.726;9.248;2022-09-21T08:52:51;97773.38;;;14.51;81.14
44131;BME280;29792;48.726;9.248;2022-09-21T08:55:19;97778.88;;;14.67;79.80
44131;BME280;29792;48.726;9.248;2022-09-21T08:57:45;97776.75;;;14.82;78.03
44131;BME280;29792;48.726;9.248;2022-09-21T09:00:15;97768.66;;;14.96;77.06
44131;BME280;29792;48.726;9.248;2022-09-21T09:05:51;97771.19;;;15.36;76.19
44131;BME280;29792;48.726;9.248;2022-09-21T09:08:32;97774.47;;;15.48;73.90
44131;BME280;29792;48.726;9.248;2022-09-21T09:17:14;97766.06;;;15.84;72.33
44131;BME280;29792;48.726;9.248;2022-09-21T09:19:57;97752.59;;;15.90;71.20
44131;BME280;29792;48.726;9.248;2022-09-21T09:22:29;97757.63;;;16.01;71.47
44131;BME280;29792;48.726;9.248;2022-09-21T09:25:03;97752.16;;;16.14;70.59
44131;BME280;29792;48.726;9.248;2022-09-21T09:27:36;97752.13;;;16.24;68.38
44131;BME280;29792;48.726;9.248;2022-09-21T09:30:24;97753.19;;;16.31;67.98
44131;BME280;29792;48.726;9.248;2022-09-21T09:35:24;97754.25;;;16.48;67.53
44131;BME280;29792;48.726;9.248;2022-09-21T09:37:53;97756.81;;;16.57;67.70
44131;BME280;29792;48.726;9.248;2022-09-21T09:40:29;97755.84;;;16.68;66.71
44131;BME280;29792;48.726;9.248;2022-09-21T09:43:09;97743.69;;;16.78;64.90
44131;BME280;29792;48.726;9.248;2022-09-21T09:45:49;97750.44;;;16.89;65.61
44131;BME280;29792;48.726;9.248;2022-09-21T09:48:41;97745.19;;;16.98;65.07
44131;BME280;29792;48.726;9.248;2022-09-21T09:51:11;97749.16;;;17.02;64.40
44131;BME280;29792;48.726;9.248;2022-09-21T09:53:37;97739.97;;;17.08;63.70
44131;BME280;29792;48.726;9.248;2022-09-21T09:56:02;97741.75;;;17.07;62.30
44131;BME280;29792;48.726;9.248;2022-09-21T09:58:47;97734.50;;;17.11;63.86
44131;BME280;29792;48.726;9.248;2022-09-21T10:01:46;97735.25;;;17.21;62.49
44131;BME280;29792;48.726;9.248;2022-09-21T10:04:22;97734.66;;;17.27;62.08
44131;BME280;29792;48.726;9.248;2022-09-21T10:06:47;97726.31;;;17.33;62.61
44131;BME280;29792;48.726;9.248;2022-09-21T10:09:33;97730.75;;;17.41;62.09
44131;BME280;29792;48.726;9.248;2022-09-21T10:12:02;97722.47;;;17.55;62.53
44131;BME280;29792;48.726;9.248;2022-09-21T10:14:32;97720.34;;;17.68;64.05
44131;BME280;29792;48.726;9.248;2022-09-21T10:17:04;97719.50;;;17.85;62.36
44131;BME280;29792;48.726;9.248;2022-09-21T10:19:30;97725.22;;;17.89;60.96
44131;BME280;29792;48.726;9.248;2022-09-21T10:21:58;97731.41;;;17.96;60.24
44131;BME280;29792;48.726;9.248;2022-09-21T10:24:28;97715.94;;;17.86;59.54
44131;BME280;29792;48.726;9.248;2022-09-21T10:34:39;97710.84;;;17.24;60.44
44131;BME280;29792;48.726;9.248;2022-09-21T10:37:42;97712.50;;;16.97;60.41
44131;BME280;29792;48.726;9.248;2022-09-21T10:42:42;97713.25;;;16.53;61.69
44131;BME280;29792;48.726;9.248;2022-09-21T10:45:18;97705.53;;;16.43;63.24
44131;BME280;29792;48.726;9.248;2022-09-21T10:47:51;97713.28;;;16.43;63.70
44131;BME280;29792;48.726;9.248;2022-09-21T10:50:26;97706.75;;;16.39;62.96
44131;BME280;29792;48.726;9.248;2022-09-21T10:52:57;97709.78;;;16.34;63.02
44131;BME280;29792;48.726;9.248;2022-09-21T10:55:23;97703.25;;;16.30;62.70
44131;BME280;29792;48.726;9.248;2022-09-21T10:57:50;97700.97;;;16.27;62.97
44131;BME280;29792;48.726;9.248;2022-09-21T11:02:51;97704.28;;;16.10;60.92
44131;BME280;29792;48.726;9.248;2022-09-21T11:05:22;97704.44;;;15.99;61.77
44131;BME280;29792;48.726;9.248;2022-09-21T11:08:04;97707.47;;;15.85;61.45
44131;BME280;29792;48.726;9.248;2022-09-21T11:10:38;97703.66;;;15.79;62.08
44131;BME280;29792;48.726;9.248;2022-09-21T11:15:54;97703.91;;;15.95;62.84
44131;BME280;29792;48.726;9.248;2022-09-21T11:21:14;97700.06;;;15.99;61.74
44131;BME280;29792;48.726;9.248;2022-09-21T11:24:02;97699.38;;;16.07;62.76
44131;BME280;29792;48.726;9.248;2022-09-21T11:26:36;97692.66;;;16.24;62.51
44131;BME280;29792;48.726;9.248;2022-09-21T11:31:36;97695.00;;;16.54;62.32
44131;BME280;29792;48.726;9.248;2022-09-21T11:34:26;97694.44;;;16.70;62.82
44131;BME280;29792;48.726;9.248;2022-09-21T11:37:17;97694.34;;;16.79;60.79
44131;BME280;29792;48.726;9.248;2022-09-21T11:48:39;97677.19;;;16.51;59.68
44131;BME280;29792;48.726;9.248;2022-09-21T11:51:43;97682.25;;;16.43;59.69
44131;BME280;29792;48.726;9.248;2022-09-21T11:54:28;97671.59;;;16.46;60.83
44131;BME280;29792;48.726;9.248;2022-09-21T11:57:11;97674.06;;;16.48;60.48
44131;BME280;29792;48.726;9.248;2022-09-21T12:00:09;97676.13;;;16.44;59.57
44131;BME280;29792;48.726;9.248;2022-09-21T12:03:12;97665.56;;;16.37;59.75
44131;BME280;29792;48.726;9.248;2022-09-21T12:09:17;97663.41;;;16.23;60.07
44131;BME280;29792;48.726;9.248;2022-09-21T12:12:07;97658.94;;;16.16;59.61
44131;BME280;29792;48.726;9.248;2022-09-21T12:17:26;97659.16;;;15.95;58.49
44131;BME280;29792;48.726;9.248;2022-09-21T12:22:31;97656.56;;;16.05;59.32
44131;BME280;29792;48.726;9.248;2022-09-21T12:25:13;97653.38;;;16.20;59.38
44131;BME280;29792;48.726;9.248;2022-09-21T12:30:16;97646.28;;;16.50;59.17
44131;BME280;29792;48.726;9.248;2022-09-21T12:33:00;97649.25;;;16.55;58.87
44131;BME280;29792;48.726;9.248;2022-09-21T12:35:38;97650.38;;;16.52;58.15
44131;BME280;29792;48.726;9.248;2022-09-21T12:38:20;97657.91;;;16.46;57.94
44131;BME280;29792;48.726;9.248;2022-09-21T12:41:11;97651.94;;;16.35;58.18
44131;BME280;29792;48.726;9.248;2022-09-21T12:44:13;97655.91;;;16.30;58.21
44131;BME280;29792;48.726;9.248;2022-09-21T12:46:47;97651.72;;;16.29;57.98
44131;BME280;29792;48.726;9.248;2022-09-21T12:49:19;97647.50;;;16.28;57.90
44131;BME280;29792;48.726;9.248;2022-09-21T12:51:55;97657.84;;;16.28;57.98
44131;BME280;29792;48.726;9.248;2022-09-21T12:54:31;97645.31;;;16.23;57.46
44131;BME280;29792;48.726;9.248;2022-09-21T12:59:49;97641.97;;;16.13;57.43
44131;BME280;29792;48.726;9.248;2022-09-21T13:02:34;97643.75;;;16.13;57.11
44131;BME280;29792;48.726;9.248;2022-09-21T13:05:16;97644.56;;;16.13;57.52
44131;BME280;29792;48.726;9.248;2022-09-21T13:08:08;97637.59;;;16.14;57.45
44131;BME280;29792;48.726;9.248;2022-09-21T13:10:46;97649.72;;;16.13;58.69
44131;BME280;29792;48.726;9.248;2022-09-21T13:13:21;97635.44;;;16.09;58.26
44131;BME280;29792;48.726;9.248;2022-09-21T13:15:48;97644.59;;;16.03;58.45
44131;BME280;29792;48.726;9.248;2022-09-21T13:18:22;97642.38;;;16.09;59.44
44131;BME280;29792;48.726;9.248;2022-09-21T13:20:49;97633.78;;;16.18;59.21
44131;BME280;29792;48.726;9.248;2022-09-21T13:23:20;97631.66;;;16.31;59.56
44131;BME280;29792;48.726;9.248;2022-09-21T13:25:48;97629.28;;;16.47;58.45
44131;BME280;29792;48.726;9.248;2022-09-21T13:36:00;97630.78;;;16.95;55.65
44131;BME280;29792;48.726;9.248;2022-09-21T13:38:27;97625.69;;;17.03;55.17
44131;BME280;29792;48.726;9.248;2022-09-21T13:40:58;97624.16;;;17.10;54.47
44131;BME280;29792;48.726;9.248;2022-09-21T13:49:14;97611.03;;;17.29;54.09
44131;BME280;29792;48.726;9.248;2022-09-21T13:54:32;97606.13;;;17.44;54.51
44131;BME280;29792;48.726;9.248;2022-09-21T13:57:04;97605.06;;;17.54;54.35
44131;BME280;29792;48.726;9.248;2022-09-21T13:59:33;97609.09;;;17.67;53.68
44131;BME280;29792;48.726;9.248;2022-09-21T14:02:00;97599.56;;;17.75;53.52
44131;BME280;29792;48.726;9.248;2022-09-21T14:04:31;97596.50;;;17.80;53.12
44131;BME280;29792;48.726;9.248;2022-09-21T14:07:02;97589.91;;;17.85;53.95
44131;BME280;29792;48.726;9.248;2022-09-21T14:09:32;97594.31;;;17.93;53.48
44131;BME280;29792;48.726;9.248;2022-09-21T14:12:02;97591.75;;;18.01;52.94
44131;BME280;29792;48.726;9.248;2022-09-21T14:14:37;97593.75;;;18.07;52.32
44131;BME280;29792;48.726;9.248;2022-09-21T14:17:05;97590.00;;;18.10;51.93
44131;BME280;29792;48.726;9.248;2022-09-21T14:24:45;97601.78;;;17.96;50.83
44131;BME280;29792;48.726;9.248;2022-09-21T14:29:54;97593.63;;;17.83;50.89
44131;BME280;29792;48.726;9.248;2022-09-21T14:32:28;97588.41;;;17.75;51.23
44131;BME280;29792;48.726;9.248;2022-09-21T14:35:01;97588.84;;;17.70;50.90
44131;BME280;29792;48.726;9.248;2022-09-21T14:37:40;97580.41;;;17.68;50.81
44131;BME280;29792;48.726;9.248;2022-09-21T14:40:24;97583.00;;;17.68;51.37
44131;BME280;29792;48.726;9.248;2022-09-21T14:42:54;97576.56;;;17.72;51.02
44131;BME280;29792;48.726;9.248;2022-09-21T14:45:44;97576.06;;;17.77;51.92
44131;BME280;29792;48.726;9.248;2022-09-21T14:51:25;97577.75;;;17.86;51.36
44131;BME280;29792;48.726;9.248;2022-09-21T14:54:05;97579.03;;;17.82;50.40
44131;BME280;29792;48.726;9.248;2022-09-21T15:02:15;97567.03;;;17.55;50.19
44131;BME280;29792;48.726;9.248;2022-09-21T15:04:57;97565.66;;;17.43;50.25
44131;BME280;29792;48.726;9.248;2022-09-21T15:07:47;97570.56;;;17.28;50.08
44131;BME280;29792;48.726;9.248;2022-09-21T15:10:57;97561.56;;;17.14;50.23
44131;BME280;29792;48.726;9.248;2022-09-21T15:16:20;97557.13;;;16.89;50.59
44131;BME280;29792;48.726;9.248;2022-09-21T15:18:49;97561.81;;;16.86;51.17
44131;BME280;29792;48.726;9.248;2022-09-21T15:21:26;97553.88;;;16.87;51.03
44131;BME280;29792;48.726;9.248;2022-09-21T15:23:54;97548.56;;;16.89;50.96
44131;BME280;29792;48.726;9.248;2022-09-21T15:26:22;97556.47;;;16.87;50.15
44131;BME280;29792;48.726;9.248;2022-09-21T15:28:56;97550.66;;;16.85;49.95